Time;durP1;ratioP1;P1;durP2;ratioP2;P2;SDS_P1;SDS_P2;PMS_P1;PMS_P2;Temp;Humidity;BMP_temperature;BMP_pressure;BME280_temperature;BME280_humidity;BME280_pressure;Samples;Min_cycle;Max_cycle;Signal;HPM_P1;HPM_P2
2021/03/26 00:01:42;;;;;;;15.03;7.97;;;8.40;99.90;;;;;;5117482;28;20495;-82
2021/03/26 00:04:10;;;;;;;12.33;7.53;;;8.40;99.90;;;;;;5117375;28;20914;-88
2021/03/26 00:06:39;;;;;;;12.17;7.50;;;8.40;99.90;;;;;;5117556;28;20450;-88
2021/03/26 00:09:07;;;;;;;18.07;7.67;;;8.40;99.90;;;;;;5117346;28;20864;-88
2021/03/26 00:11:33;;;;;;;11.63;8.23;;;8.30;99.90;;;;;;5117662;28;20512;-88
2021/03/26 00:14:00;;;;;;;13.47;8.70;;;8.20;99.90;;;;;;5117460;28;20431;-88
2021/03/26 00:16:27;;;;;;;15.17;8.87;;;8.20;99.90;;;;;;5117296;28;20439;-79
2021/03/26 00:18:54;;;;;;;9.77;7.27;;;8.10;99.90;;;;;;5116654;28;20474;-79
2021/03/26 00:21:21;;;;;;;13.90;8.37;;;8.00;99.90;;;;;;5116409;28;20443;-79
2021/03/26 00:23:48;;;;;;;11.03;8.33;;;7.90;99.90;;;;;;5116654;28;20447;-79
2021/03/26 00:26:14;;;;;;;9.53;7.83;;;7.90;99.90;;;;;;5116603;28;20786;-79
2021/03/26 00:28:41;;;;;;;16.97;8.67;;;7.70;99.90;;;;;;5116169;28;20473;-79
2021/03/26 00:31:08;;;;;;;10.73;7.70;;;7.70;99.90;;;;;;5116226;28;20537;-79
2021/03/26 00:33:34;;;;;;;13.63;7.60;;;7.60;99.90;;;;;;5116668;28;20447;-79
2021/03/26 00:36:02;;;;;;;10.13;7.10;;;7.60;99.90;;;;;;5115426;28;20430;-79
2021/03/26 00:38:28;;;;;;;16.03;8.50;;;7.60;99.90;;;;;;5116309;28;20466;-79
2021/03/26 00:40:55;;;;;;;12.77;7.60;;;7.50;99.90;;;;;;5116385;28;20428;-79
2021/03/26 00:43:22;;;;;;;14.83;9.03;;;7.50;99.90;;;;;;5116257;28;20439;-79
2021/03/26 00:45:49;;;;;;;10.27;7.67;;;7.40;99.90;;;;;;5116289;28;20440;-79
2021/03/26 00:48:18;;;;;;;11.27;8.07;;;7.40;99.90;;;;;;5115837;28;21020;-79
2021/03/26 00:50:47;;;;;;;12.43;7.67;;;7.40;99.90;;;;;;5116076;28;20474;-79
2021/03/26 00:53:16;;;;;;;12.00;8.00;;;7.40;99.90;;;;;;5116092;28;20446;-79
2021/03/26 00:55:43;;;;;;;13.30;8.10;;;7.40;99.90;;;;;;5115601;28;20531;-79
2021/03/26 00:58:09;;;;;;;15.73;8.07;;;7.30;99.90;;;;;;5115898;28;20494;-79
2021/03/26 01:00:37;;;;;;;13.93;7.30;;;7.30;99.90;;;;;;5116000;28;20439;-79
2021/03/26 01:03:05;;;;;;;11.90;6.97;;;7.30;99.90;;;;;;5115964;28;20441;-79
2021/03/26 01:05:40;;;;;;;11.27;6.60;;;7.30;99.90;;;;;;5115599;28;20431;-79
2021/03/26 01:08:06;;;;;;;12.37;7.60;;;7.30;99.90;;;;;;5115722;28;20523;-79
2021/03/26 01:10:36;;;;;;;10.90;6.80;;;7.30;99.90;;;;;;5115660;28;20412;-79
2021/03/26 01:13:03;;;;;;;15.10;6.57;;;7.20;99.90;;;;;;5115671;28;20446;-79
2021/03/26 01:15:31;;;;;;;10.10;7.13;;;7.30;99.90;;;;;;5115636;28;20800;-80
2021/03/26 01:17:58;;;;;;;11.47;8.13;;;7.30;99.90;;;;;;5115488;28;20447;-81
2021/03/26 01:20:28;;;;;;;13.13;7.90;;;7.20;99.90;;;;;;5115589;28;20427;-82
2021/03/26 01:22:54;;;;;;;10.10;6.97;;;7.30;99.90;;;;;;5115202;28;20945;-82
2021/03/26 01:25:23;;;;;;;12.07;7.50;;;7.30;99.90;;;;;;5115309;28;20942;-79
2021/03/26 01:27:50;;;;;;;11.53;7.57;;;7.30;99.90;;;;;;5115380;28;20467;-79
2021/03/26 01:30:20;;;;;;;9.67;6.77;;;7.40;99.90;;;;;;5115252;28;20950;-79
2021/03/26 01:32:47;;;;;;;16.53;7.13;;;7.40;99.90;;;;;;5115156;28;20486;-79
2021/03/26 01:35:14;;;;;;;9.93;7.10;;;7.40;99.90;;;;;;5115360;28;21005;-79
2021/03/26 01:37:41;;;;;;;11.60;6.87;;;7.40;99.90;;;;;;5115113;28;20504;-79
2021/03/26 01:40:10;;;;;;;10.03;6.80;;;7.40;99.90;;;;;;5115246;28;20432;-79
2021/03/26 01:42:39;;;;;;;13.70;6.97;;;7.40;99.90;;;;;;5115074;28;20438;-79
2021/03/26 01:45:11;;;;;;;11.10;7.20;;;7.30;99.90;;;;;;5114764;28;20451;-79
2021/03/26 01:47:38;;;;;;;9.23;7.27;;;7.30;99.90;;;;;;5113936;28;20495;-79
2021/03/26 01:50:06;;;;;;;10.87;6.77;;;7.20;99.90;;;;;;5115191;28;20555;-81
2021/03/26 01:52:32;;;;;;;10.80;7.13;;;7.20;99.90;;;;;;5114589;28;20973;-81
2021/03/26 01:54:58;;;;;;;12.33;6.60;;;7.10;99.90;;;;;;5115184;28;20449;-88
2021/03/26 01:57:25;;;;;;;11.40;7.83;;;7.10;99.90;;;;;;5115011;28;20558;-82
2021/03/26 01:59:51;;;;;;;10.90;7.40;;;7.10;99.90;;;;;;5114787;28;20450;-82
2021/03/26 02:02:22;;;;;;;12.53;7.23;;;7.10;99.90;;;;;;5114739;28;20431;-82
2021/03/26 02:04:49;;;;;;;13.13;7.97;;;7.10;99.90;;;;;;5114951;28;20427;-82
2021/03/26 02:07:16;;;;;;;8.30;6.47;;;7.20;99.90;;;;;;5114271;28;20483;-82
2021/03/26 02:09:44;;;;;;;11.20;7.13;;;7.30;99.90;;;;;;5114559;28;20817;-82
2021/03/26 02:12:18;;;;;;;12.07;7.50;;;7.30;99.90;;;;;;5114408;28;20573;-82
2021/03/26 02:14:47;;;;;;;10.47;7.87;;;7.40;99.90;;;;;;5114477;28;20438;-82
2021/03/26 02:17:16;;;;;;;11.10;7.90;;;7.40;99.90;;;;;;5114277;28;20462;-82
2021/03/26 02:19:47;;;;;;;12.93;8.73;;;7.40;99.90;;;;;;5114262;28;20447;-82
2021/03/26 02:22:15;;;;;;;11.90;8.57;;;7.50;99.90;;;;;;5114342;28;20434;-81
2021/03/26 02:24:44;;;;;;;14.77;8.53;;;7.50;99.90;;;;;;5114221;28;20468;-82
2021/03/26 02:27:13;;;;;;;10.80;8.33;;;7.50;99.90;;;;;;5113865;28;21011;-82
2021/03/26 02:29:40;;;;;;;14.17;9.03;;;7.40;99.90;;;;;;5114691;28;20508;-82
2021/03/26 02:32:10;;;;;;;12.87;9.53;;;7.40;99.90;;;;;;5114034;28;20482;-82
2021/03/26 02:34:37;;;;;;;14.80;9.30;;;7.40;99.90;;;;;;5113873;28;20537;-82
2021/03/26 02:37:08;;;;;;;14.43;10.00;;;7.30;99.90;;;;;;5113739;28;20938;-81
2021/03/26 02:39:39;;;;;;;14.60;9.47;;;7.30;99.90;;;;;;5114682;28;20436;-82
2021/03/26 02:42:17;;;;;;;11.37;8.87;;;7.30;99.90;;;;;;5114065;28;20434;-82
2021/03/26 02:44:52;;;;;;;14.70;8.77;;;7.20;99.90;;;;;;5113773;28;20776;-82
2021/03/26 02:47:26;;;;;;;14.60;9.30;;;7.20;99.90;;;;;;5114124;28;20536;-82
2021/03/26 02:50:00;;;;;;;15.33;9.97;;;7.10;99.90;;;;;;5114057;28;20496;-82
2021/03/26 02:52:36;;;;;;;11.60;8.50;;;7.10;99.90;;;;;;5113944;28;20458;-82
2021/03/26 02:55:10;;;;;;;14.03;9.50;;;7.10;99.90;;;;;;5113738;28;20431;-82
2021/03/26 02:57:42;;;;;;;13.10;9.23;;;7.00;99.90;;;;;;5113881;28;20474;-82
2021/03/26 03:00:17;;;;;;;13.90;9.67;;;7.00;99.90;;;;;;5113565;28;20458;-82
2021/03/26 03:02:44;;;;;;;13.10;8.83;;;7.00;99.90;;;;;;5114381;28;20456;-82
2021/03/26 03:05:14;;;;;;;14.37;9.57;;;6.90;99.90;;;;;;5114611;28;20512;-82
2021/03/26 03:07:45;;;;;;;15.10;9.87;;;6.90;99.90;;;;;;5113533;28;20447;-82
2021/03/26 03:10:21;;;;;;;14.17;9.07;;;6.90;99.90;;;;;;5113728;28;20439;-82
2021/03/26 03:12:51;;;;;;;17.00;11.63;;;6.80;99.90;;;;;;5113625;28;20470;-82
2021/03/26 03:15:21;;;;;;;14.13;9.37;;;6.80;99.90;;;;;;5113789;28;20439;-82
2021/03/26 03:17:55;;;;;;;14.13;8.80;;;6.70;99.90;;;;;;5113305;28;20993;-82
2021/03/26 03:20:28;;;;;;;11.40;8.23;;;6.70;99.90;;;;;;5113338;28;20438;-82
2021/03/26 03:23:02;;;;;;;11.80;8.27;;;6.60;99.90;;;;;;5113340;28;20411;-82
2021/03/26 03:25:29;;;;;;;15.87;8.53;;;6.60;99.90;;;;;;5113397;28;20404;-82
2021/03/26 03:28:09;;;;;;;17.00;9.80;;;6.60;99.90;;;;;;5113501;28;20471;-82
2021/03/26 03:30:44;;;;;;;14.93;9.27;;;6.60;99.90;;;;;;5113288;28;20427;-82
2021/03/26 03:33:17;;;;;;;15.00;8.13;;;6.60;99.90;;;;;;5113600;28;20415;-82
2021/03/26 03:35:51;;;;;;;12.00;8.50;;;6.60;99.90;;;;;;5113218;28;20794;-82
2021/03/26 03:38:27;;;;;;;13.60;8.47;;;6.60;99.90;;;;;;5113512;28;20486;-81
2021/03/26 03:40:58;;;;;;;12.47;8.73;;;6.70;99.90;;;;;;5113242;28;20871;-81
2021/03/26 03:43:32;;;;;;;14.23;8.80;;;6.70;99.90;;;;;;5113510;28;20427;-81
2021/03/26 03:46:03;;;;;;;11.63;8.47;;;6.70;99.90;;;;;;5113462;28;20534;-82
2021/03/26 03:48:34;;;;;;;16.10;9.50;;;6.80;99.90;;;;;;5113361;28;20463;-81
2021/03/26 03:51:04;;;;;;;12.93;8.47;;;6.80;99.90;;;;;;5113029;28;20971;-82
2021/03/26 03:53:37;;;;;;;17.03;9.60;;;6.90;99.90;;;;;;5113078;28;20918;-82
2021/03/26 03:56:13;;;;;;;14.83;8.73;;;6.90;99.90;;;;;;5113038;28;20850;-82
2021/03/26 03:58:43;;;;;;;17.50;9.00;;;6.90;99.90;;;;;;5112965;28;20466;-82
2021/03/26 04:01:13;;;;;;;18.83;9.50;;;7.00;99.90;;;;;;5113653;28;20447;-89
2021/03/26 04:03:46;;;;;;;11.97;8.50;;;7.10;99.90;;;;;;5113750;28;20427;-89
2021/03/26 04:06:16;;;;;;;12.70;8.20;;;7.10;99.90;;;;;;5113851;28;20423;-88
2021/03/26 04:08:45;;;;;;;15.90;9.97;;;7.10;99.90;;;;;;5113831;28;20470;-89
2021/03/26 04:11:15;;;;;;;13.50;8.80;;;7.10;99.90;;;;;;5114609;28;20474;-88
2021/03/26 04:13:48;;;;;;;17.17;8.27;;;7.20;99.90;;;;;;5117272;28;20411;-89
2021/03/26 04:16:19;;;;;;;11.60;8.07;;;7.20;99.90;;;;;;5117429;28;20443;-89
2021/03/26 04:18:50;;;;;;;14.33;7.83;;;7.30;99.90;;;;;;5121611;28;20427;-88
2021/03/26 04:21:21;;;;;;;11.50;7.80;;;7.30;99.90;;;;;;5117420;28;20427;-89
2021/03/26 04:23:54;;;;;;;11.93;7.73;;;7.30;99.90;;;;;;5117033;28;20913;-89
2021/03/26 04:26:24;;;;;;;13.57;8.93;;;7.40;99.90;;;;;;5117055;28;20419;-89
2021/03/26 04:28:56;;;;;;;14.13;9.40;;;7.40;99.90;;;;;;5116951;28;20462;-89
2021/03/26 04:31:26;;;;;;;12.53;8.87;;;7.40;99.90;;;;;;5116770;28;20463;-89
2021/03/26 04:33:54;;;;;;;11.10;8.50;;;7.40;99.90;;;;;;5116962;28;20431;-89
2021/03/26 04:36:24;;;;;;;14.73;9.57;;;7.30;99.90;;;;;;5117065;28;20439;-89
2021/03/26 04:39:00;;;;;;;12.40;8.10;;;7.30;99.90;;;;;;5117113;28;20474;-89
2021/03/26 04:41:33;;;;;;;12.37;8.03;;;7.40;99.90;;;;;;5116710;28;20905;-89
2021/03/26 04:44:07;;;;;;;12.37;9.17;;;7.40;99.90;;;;;;5116887;28;20805;-89
2021/03/26 04:46:39;;;;;;;14.20;9.17;;;7.40;99.90;;;;;;5116941;28;20459;-89
2021/03/26 04:49:09;;;;;;;9.93;8.07;;;7.40;99.90;;;;;;5116312;28;20462;-79
2021/03/26 04:51:39;;;;;;;14.30;8.23;;;7.40;99.90;;;;;;5116361;28;20522;-82
2021/03/26 04:54:13;;;;;;;13.00;8.50;;;7.40;99.90;;;;;;5116185;28;20423;-82
2021/03/26 04:56:44;;;;;;;9.67;7.10;;;7.40;99.90;;;;;;5115742;28;20505;-82
2021/03/26 04:59:14;;;;;;;16.00;7.43;;;7.30;99.90;;;;;;5115983;28;20467;-82
2021/03/26 05:01:44;;;;;;;11.93;7.47;;;7.30;99.90;;;;;;5116448;28;20488;-82
2021/03/26 05:04:17;;;;;;;14.00;7.73;;;7.30;99.90;;;;;;5115865;28;20445;-82
2021/03/26 05:06:46;;;;;;;11.40;7.50;;;7.30;99.90;;;;;;5115547;28;20834;-81
2021/03/26 05:09:17;;;;;;;10.10;7.30;;;7.30;99.90;;;;;;5115693;28;20467;-82
2021/03/26 05:11:47;;;;;;;10.83;7.13;;;7.20;99.90;;;;;;5115958;28;20463;-82
2021/03/26 05:14:18;;;;;;;11.33;7.47;;;7.10;99.90;;;;;;5115765;28;20431;-82
2021/03/26 05:16:52;;;;;;;14.60;9.07;;;7.00;99.90;;;;;;5116050;28;20499;-82
2021/03/26 05:19:22;;;;;;;11.83;7.53;;;7.00;99.90;;;;;;5115315;28;20840;-82
2021/03/26 05:21:57;;;;;;;13.17;8.13;;;6.90;99.90;;;;;;5115395;28;20438;-82
2021/03/26 05:24:33;;;;;;;11.30;7.40;;;6.90;99.90;;;;;;5115266;28;20909;-82
2021/03/26 05:27:00;;;;;;;10.23;6.70;;;6.90;99.90;;;;;;5115388;28;20431;-82
2021/03/26 05:29:28;;;;;;;12.80;8.20;;;6.80;99.90;;;;;;5115341;28;20814;-82
2021/03/26 05:32:01;;;;;;;13.50;8.30;;;6.80;99.90;;;;;;5114867;28;20847;-82
2021/03/26 05:34:34;;;;;;;10.80;7.30;;;6.70;99.90;;;;;;5115349;28;20427;-82
2021/03/26 05:37:20;;;;;;;15.20;8.73;;;6.70;99.90;;;;;;5115157;28;20439;-82
2021/03/26 05:39:53;;;;;;;12.87;8.63;;;6.60;99.90;;;;;;5114842;28;20942;-82
2021/03/26 05:42:32;;;;;;;11.27;7.73;;;6.60;99.90;;;;;;5115173;28;20427;-82
2021/03/26 05:45:14;;;;;;;13.13;7.40;;;6.50;99.90;;;;;;5115196;28;20434;-83
2021/03/26 05:47:53;;;;;;;13.00;8.57;;;6.50;99.90;;;;;;5115044;28;20474;-82
2021/03/26 05:50:31;;;;;;;13.53;7.53;;;6.50;99.90;;;;;;5115085;28;20427;-81
2021/03/26 05:53:12;;;;;;;11.87;8.27;;;6.50;99.90;;;;;;5114634;28;20977;-81
2021/03/26 05:55:48;;;;;;;13.03;8.83;;;6.50;99.90;;;;;;5115034;28;20475;-81
2021/03/26 05:58:31;;;;;;;13.60;7.43;;;6.60;99.90;;;;;;5114848;28;20446;-81
2021/03/26 06:01:22;;;;;;;11.37;7.83;;;6.70;99.90;;;;;;5114818;28;20419;-81
2021/03/26 06:04:17;;;;;;;14.60;7.07;;;6.80;99.90;;;;;;5114516;28;20419;-81
2021/03/26 06:07:14;;;;;;;12.33;7.70;;;6.90;99.90;;;;;;5114695;28;20447;-79
2021/03/26 06:10:06;;;;;;;12.80;8.20;;;7.00;99.90;;;;;;5114615;28;20435;-79
2021/03/26 06:13:07;;;;;;;10.80;8.10;;;7.10;99.90;;;;;;5114478;28;20490;-79
2021/03/26 06:15:53;;;;;;;14.13;8.13;;;7.30;99.90;;;;;;5114549;28;20434;-79
2021/03/26 06:18:52;;;;;;;18.03;8.80;;;7.50;99.90;;;;;;5114431;28;20467;-79
2021/03/26 06:21:27;;;;;;;11.70;7.63;;;7.60;99.90;;;;;;5114032;28;20442;-81
2021/03/26 06:24:21;;;;;;;12.70;8.73;;;7.90;99.90;;;;;;5114417;28;20438;-82
2021/03/26 06:27:02;;;;;;;9.50;7.43;;;8.20;99.90;;;;;;5114365;28;20443;-82
2021/03/26 06:29:40;;;;;;;9.57;7.03;;;8.70;99.90;;;;;;5114707;28;20427;-82
2021/03/26 06:32:54;;;;;;;10.77;8.60;;;9.10;99.90;;;;;;5114189;28;20557;-82
2021/03/26 06:36:01;;;;;;;11.90;8.90;;;9.40;99.90;;;;;;5051179;28;20477;-81
2021/03/26 06:38:49;;;;;;;12.47;9.00;;;9.80;99.90;;;;;;5113835;28;20827;-81
2021/03/26 06:41:22;;;;;;;12.30;8.10;;;9.90;99.90;;;;;;5113755;28;20419;-82
2021/03/26 06:44:20;;;;;;;13.20;8.80;;;9.90;99.90;;;;;;5114072;28;20480;-82
2021/03/26 06:46:53;;;;;;;13.57;9.07;;;9.80;99.90;;;;;;5114022;28;20756;-82
2021/03/26 06:49:29;;;;;;;13.80;9.43;;;9.60;99.90;;;;;;5114075;28;20486;-82
2021/03/26 06:52:10;;;;;;;17.03;8.80;;;9.50;99.90;;;;;;5113604;28;20474;-82
2021/03/26 06:55:03;;;;;;;9.97;8.30;;;9.50;99.90;;;;;;5113892;28;20439;-81
2021/03/26 06:57:57;;;;;;;12.83;9.13;;;9.40;99.90;;;;;;5113557;28;20985;-82
2021/03/26 07:00:49;;;;;;;12.60;8.57;;;9.30;99.90;;;;;;5111315;28;20459;-82
2021/03/26 07:03:44;;;;;;;14.20;9.40;;;9.40;99.90;;;;;;5113832;28;20453;-82
2021/03/26 07:06:42;;;;;;;10.10;7.93;;;9.60;99.90;;;;;;5113820;28;20431;-82
2021/03/26 07:09:23;;;;;;;13.20;8.30;;;9.70;99.90;;;;;;5113406;28;20471;-81
2021/03/26 07:12:04;;;;;;;16.80;8.90;;;9.90;99.90;;;;;;5134760;22;20505;-81
2021/03/26 07:14:42;;;;;;;11.37;8.30;;;10.00;99.90;;;;;;5033282;28;20443;-82
2021/03/26 07:17:44;;;;;;;13.57;8.40;;;10.10;99.90;;;;;;5036275;28;20852;-89
2021/03/26 07:20:41;;;;;;;12.23;8.33;;;10.20;99.90;;;;;;5046826;28;20446;-89
2021/03/26 07:23:43;;;;;;;13.97;8.77;;;10.20;99.90;;;;;;5053764;28;20415;-89
2021/03/26 07:26:37;;;;;;;13.40;9.23;;;10.30;99.90;;;;;;5053496;28;20480;-89
2021/03/26 07:29:30;;;;;;;14.67;9.67;;;10.30;99.90;;;;;;5054395;28;20502;-89
2021/03/26 07:32:25;;;;;;;17.17;9.27;;;10.20;99.90;;;;;;5053313;28;20480;-89
2021/03/26 07:35:17;;;;;;;13.90;10.73;;;10.30;99.90;;;;;;5050864;28;20442;-89
2021/03/26 07:37:55;;;;;;;14.53;9.67;;;10.20;99.90;;;;;;5053981;28;20482;-89
2021/03/26 07:40:51;;;;;;;12.00;8.73;;;10.20;99.90;;;;;;5053738;28;20441;-90
2021/03/26 07:43:40;;;;;;;18.30;9.67;;;10.40;99.90;;;;;;5053484;28;20487;-90
2021/03/26 07:46:24;;;;;;;14.47;9.80;;;10.40;99.90;;;;;;5055253;28;20436;-89
2021/03/26 07:49:04;;;;;;;13.57;9.30;;;10.60;99.90;;;;;;5057443;28;20843;-89
2021/03/26 07:51:33;;;;;;;14.43;9.60;;;10.70;99.90;;;;;;5058417;28;20536;-89
2021/03/26 07:54:17;;;;;;;14.77;9.13;;;10.60;99.90;;;;;;5057538;28;20429;-90
2021/03/26 07:57:08;;;;;;;13.47;9.37;;;10.70;99.90;;;;;;5057292;28;20433;-89
2021/03/26 07:59:50;;;;;;;11.83;8.50;;;10.90;99.90;;;;;;5054579;28;20458;-89
2021/03/26 08:02:27;;;;;;;11.90;8.77;;;11.00;99.90;;;;;;5057184;28;20422;-89
2021/03/26 08:05:01;;;;;;;15.80;8.37;;;11.10;99.90;;;;;;5057501;28;20432;-89
2021/03/26 08:08:11;;;;;;;10.13;7.67;;;11.20;99.90;;;;;;5056932;28;20465;-89
2021/03/26 08:10:50;;;;;;;13.57;7.80;;;11.40;99.90;;;;;;4995375;28;20456;-89
2021/03/26 08:13:57;;;;;;;13.60;8.43;;;11.50;99.90;;;;;;5047108;28;20493;-89
2021/03/26 08:16:45;;;;;;;11.50;7.60;;;11.70;99.90;;;;;;5056792;28;20449;-89
2021/03/26 08:19:17;;;;;;;14.33;8.60;;;11.80;99.90;;;;;;5056645;28;20477;-88
2021/03/26 08:21:54;;;;;;;10.90;8.37;;;12.00;99.90;;;;;;5056453;28;20423;-88
2021/03/26 08:24:45;;;;;;;14.20;8.37;;;12.30;99.90;;;;;;5056369;28;20437;-89
2021/03/26 08:27:23;;;;;;;12.83;8.30;;;12.40;99.90;;;;;;5056509;28;20474;-88
2021/03/26 08:30:03;;;;;;;14.20;7.97;;;12.60;99.90;;;;;;5057335;28;20445;-89
2021/03/26 08:33:03;;;;;;;10.40;8.47;;;12.80;99.90;;;;;;5056297;28;20465;-89
2021/03/26 08:35:44;;;;;;;9.67;7.60;;;13.00;98.40;;;;;;5051192;28;20446;-89
2021/03/26 08:38:31;;;;;;;12.07;8.13;;;13.20;98.10;;;;;;5056043;28;20450;-88
2021/03/26 08:41:01;;;;;;;14.37;8.50;;;13.40;96.80;;;;;;5056345;28;20781;-88
2021/03/26 08:43:31;;;;;;;14.80;9.30;;;13.60;97.40;;;;;;5055773;28;21019;-88
2021/03/26 08:46:08;;;;;;;13.33;8.70;;;13.80;94.90;;;;;;5056013;28;20434;-89
2021/03/26 08:48:40;;;;;;;10.80;8.33;;;13.90;94.10;;;;;;5056143;28;20458;-88
2021/03/26 08:51:52;;;;;;;10.83;9.00;;;14.00;94.10;;;;;;5055970;28;20438;-89
2021/03/26 08:54:32;;;;;;;11.57;8.57;;;13.90;93.40;;;;;;5055769;28;20909;-89
2021/03/26 08:57:07;;;;;;;10.20;9.03;;;14.20;91.90;;;;;;5055414;28;20491;-89
2021/03/26 08:59:53;;;;;;;14.13;8.70;;;14.40;91.90;;;;;;5056259;28;20450;-88
2021/03/26 09:02:57;;;;;;;12.63;8.73;;;14.70;91.20;;;;;;5055854;28;20438;-89
2021/03/26 09:05:58;;;;;;;11.97;8.77;;;15.40;89.40;;;;;;5030424;28;20445;-89
2021/03/26 09:08:40;;;;;;;9.30;8.30;;;17.30;80.40;;;;;;5023523;28;20461;-88
2021/03/26 09:11:26;;;;;;;14.27;8.90;;;19.10;74.50;;;;;;5055757;28;20433;-88
2021/03/26 09:14:19;;;;;;;11.67;7.83;;;21.50;63.30;;;;;;5055938;28;20434;-88
2021/03/26 09:16:53;;;;;;;12.10;8.50;;;23.20;56.80;;;;;;5054992;28;20961;-83
2021/03/26 09:19:25;;;;;;;11.23;9.68;;;23.90;50.80;;;;;;5055096;28;20182;-83
2021/03/26 09:21:59;;;;;;;10.80;8.20;;;24.50;48.10;;;;;;5055027;28;20194;-83
2021/03/26 09:25:02;;;;;;;9.55;8.45;;;24.80;47.60;;;;;;5054968;28;20194;-83
2021/03/26 09:27:35;;;;;;;12.90;8.50;;;25.40;44.90;;;;;;5036028;28;20229;-83
2021/03/26 09:30:11;;;;;;;9.38;8.25;;;25.20;46.50;;;;;;5054913;28;20241;-83
2021/03/26 09:32:45;;;;;;;11.77;8.88;;;25.00;44.00;;;;;;5054704;28;20212;-83
2021/03/26 09:35:15;;;;;;;10.38;8.48;;;24.30;44.30;;;;;;5054880;28;20205;-83
2021/03/26 09:37:46;;;;;;;9.35;7.95;;;24.10;45.70;;;;;;5054741;28;20227;-85
2021/03/26 09:40:31;;;;;;;9.57;8.45;;;24.60;43.10;;;;;;5054327;28;20282;-84
2021/03/26 09:43:10;;;;;;;10.93;8.65;;;24.90;43.30;;;;;;5054616;28;20208;-83
2021/03/26 09:45:42;;;;;;;9.57;8.35;;;25.50;42.50;;;;;;5054602;28;20188;-83
2021/03/26 09:48:21;;;;;;;12.52;8.32;;;25.90;40.40;;;;;;5054348;28;20250;-83
2021/03/26 09:50:56;;;;;;;8.68;7.88;;;26.60;41.20;;;;;;5054159;28;20654;-84
2021/03/26 09:53:23;;;;;;;8.30;7.45;;;27.10;39.80;;;;;;5054280;28;20575;-83
2021/03/26 09:55:53;;;;;;;9.27;8.23;;;27.40;39.30;;;;;;5054329;28;20191;-84
2021/03/26 09:58:27;;;;;;;8.63;7.65;;;27.80;38.40;;;;;;5053979;28;20253;-83
2021/03/26 10:00:56;;;;;;;9.30;7.45;;;27.20;37.90;;;;;;5054152;28;20207;-83
2021/03/26 10:03:48;;;;;;;8.82;6.35;;;27.10;39.00;;;;;;5053966;28;20639;-83
2021/03/26 10:06:28;;;;;;;8.43;7.63;;;27.10;39.10;;;;;;5054208;28;20270;-82
2021/03/26 10:09:04;;;;;;;8.82;7.50;;;26.80;37.70;;;;;;5053204;28;20230;-83
2021/03/26 10:11:52;;;;;;;8.65;7.32;;;26.60;39.60;;;;;;5054010;28;20562;-83
2021/03/26 10:14:23;;;;;;;8.07;7.28;;;26.70;39.30;;;;;;5054075;28;20250;-83
2021/03/26 10:16:54;;;;;;;7.68;6.97;;;26.70;38.70;;;;;;5053786;28;20175;-82
2021/03/26 10:19:28;;;;;;;7.13;6.55;;;26.60;38.70;;;;;;5054557;28;20187;-82
2021/03/26 10:21:57;;;;;;;9.10;8.20;;;26.90;38.90;;;;;;5054000;28;20186;-81
2021/03/26 10:24:28;;;;;;;6.95;6.35;;;27.20;37.70;;;;;;5053507;28;20212;-81
2021/03/26 10:27:05;;;;;;;7.93;7.13;;;27.00;37.60;;;;;;5053680;28;20200;-81
2021/03/26 10:29:41;;;;;;;7.22;6.38;;;27.70;37.30;;;;;;5053550;28;20182;-83
2021/03/26 10:32:16;;;;;;;6.68;6.10;;;28.20;38.00;;;;;;5053845;28;20267;-83
2021/03/26 10:34:45;;;;;;;7.30;6.40;;;27.90;36.60;;;;;;5053638;28;20193;-83
2021/03/26 10:37:25;;;;;;;10.38;6.25;;;27.10;36.30;;;;;;5053597;28;20232;-82
2021/03/26 10:39:55;;;;;;;8.68;6.90;;;27.10;37.80;;;;;;5053271;28;20184;-82
2021/03/26 10:42:34;;;;;;;7.32;6.63;;;27.00;37.50;;;;;;5053227;28;20645;-82
2021/03/26 10:45:23;;;;;;;6.68;6.00;;;27.70;36.20;;;;;;5053541;28;20191;-82
2021/03/26 10:47:55;;;;;;;6.82;6.13;;;28.10;35.30;;;;;;5053331;28;20225;-82
2021/03/26 10:50:39;;;;;;;9.18;7.18;;;28.60;35.50;;;;;;5053452;28;20234;-82
2021/03/26 10:53:10;;;;;;;7.75;6.72;;;28.90;34.10;;;;;;5053290;28;20215;-82
2021/03/26 10:55:45;;;;;;;7.13;6.32;;;29.00;34.20;;;;;;5053381;28;20227;-82
2021/03/26 10:58:23;;;;;;;5.55;4.68;;;28.70;33.70;;;;;;5053334;28;20278;-82
2021/03/26 11:01:00;;;;;;;5.90;5.32;;;28.20;34.30;;;;;;5053288;28;20194;-82
2021/03/26 11:03:31;;;;;;;5.47;4.57;;;29.00;33.70;;;;;;5053626;28;20183;-90
2021/03/26 11:06:00;;;;;;;6.40;5.80;;;28.40;33.90;;;;;;5054176;28;20194;-90
2021/03/26 11:08:39;;;;;;;8.95;6.20;;;27.80;34.20;;;;;;5053614;28;20226;-90
2021/03/26 11:11:27;;;;;;;7.00;6.43;;;27.10;35.10;;;;;;5053346;28;20188;-81
2021/03/26 11:14:33;;;;;;;6.05;5.45;;;25.90;36.60;;;;;;5052790;28;20330;-80
2021/03/26 11:17:10;;;;;;;8.25;7.30;;;24.10;38.60;;;;;;5053001;28;20179;-83
2021/03/26 11:19:41;;;;;;;7.22;6.50;;;23.10;40.60;;;;;;5053416;28;20190;-89
2021/03/26 11:22:17;;;;;;;9.00;8.10;;;22.60;41.90;;;;;;5057793;28;20646;-89
2021/03/26 11:25:02;;;;;;;10.20;7.10;;;22.10;43.00;;;;;;5058284;28;20199;-89
2021/03/26 11:27:34;;;;;;;8.27;7.40;;;21.50;44.20;;;;;;5057822;28;20230;-89
2021/03/26 11:30:36;;;;;;;9.13;6.77;;;21.10;45.30;;;;;;5057798;28;20448;-89
2021/03/26 11:33:16;;;;;;;9.70;7.60;;;20.70;45.80;;;;;;5025288;28;20491;-89
2021/03/26 11:35:45;;;;;;;11.33;7.70;;;20.50;46.80;;;;;;5058178;28;20441;-89
2021/03/26 11:38:16;;;;;;;7.97;7.03;;;20.40;46.10;;;;;;5057555;28;20472;-89
2021/03/26 11:40:46;;;;;;;10.10;8.17;;;20.20;46.50;;;;;;5057688;28;21035;-89
2021/03/26 11:43:18;;;;;;;8.63;7.37;;;20.20;47.40;;;;;;5057402;28;20789;-89
2021/03/26 11:45:56;;;;;;;11.97;8.40;;;19.90;47.10;;;;;;5058048;28;20446;-89
2021/03/26 11:48:38;;;;;;;8.77;7.60;;;19.60;47.20;;;;;;5056587;28;20469;-82
2021/03/26 11:51:12;;;;;;;12.03;8.30;;;19.50;47.30;;;;;;5056450;28;20434;-81
2021/03/26 11:53:43;;;;;;;10.60;7.07;;;19.20;48.00;;;;;;5056931;28;20465;-81
2021/03/26 11:56:33;;;;;;;8.07;7.27;;;19.20;48.80;;;;;;5056221;28;20457;-81
2021/03/26 11:59:44;;;;;;;7.70;6.90;;;19.20;48.40;;;;;;5056543;28;20520;-81
2021/03/26 12:02:34;;;;;;;8.70;7.17;;;19.10;48.70;;;;;;5056217;28;21019;-81
2021/03/26 12:05:09;;;;;;;6.90;6.20;;;19.20;49.60;;;;;;5056530;28;20434;-81
2021/03/26 12:07:41;;;;;;;5.97;4.40;;;19.20;49.00;;;;;;5056099;28;20461;-81
2021/03/26 12:10:18;;;;;;;5.40;4.90;;;19.10;48.00;;;;;;5056804;28;20426;-88
2021/03/26 12:12:49;;;;;;;6.20;5.07;;;19.00;49.50;;;;;;5056521;28;20975;-87
2021/03/26 12:15:23;;;;;;;4.47;4.07;;;19.00;48.90;;;;;;5056514;28;20429;-89
2021/03/26 12:18:02;;;;;;;6.67;4.10;;;19.10;47.10;;;;;;5056503;28;20465;-88
2021/03/26 12:20:31;;;;;;;6.30;4.03;;;18.90;47.50;;;;;;5056713;28;20500;-89
2021/03/26 12:23:08;;;;;;;7.20;4.77;;;18.80;48.80;;;;;;5056864;28;20426;-89
2021/03/26 12:25:41;;;;;;;6.33;4.20;;;18.70;48.60;;;;;;5056147;28;20905;-80
2021/03/26 12:28:18;;;;;;;11.30;6.20;;;18.60;47.80;;;;;;5055730;28;20466;-80
2021/03/26 12:30:49;;;;;;;6.07;5.40;;;18.70;48.90;;;;;;5056036;28;20434;-80
2021/03/26 12:33:25;;;;;;;4.93;4.53;;;18.50;48.90;;;;;;5055013;28;20476;-79
2021/03/26 12:35:54;;;;;;;6.57;4.80;;;18.40;49.00;;;;;;5055977;28;20418;-79
2021/03/26 12:38:29;;;;;;;4.90;4.10;;;18.40;49.40;;;;;;5055867;28;20461;-80
2021/03/26 12:41:14;;;;;;;4.80;3.80;;;18.20;48.30;;;;;;5055864;28;20445;-79
2021/03/26 12:43:53;;;;;;;5.90;4.40;;;18.20;47.50;;;;;;5055801;28;20509;-79
2021/03/26 12:46:43;;;;;;;3.70;3.40;;;18.10;47.20;;;;;;5055447;28;20940;-79
2021/03/26 12:49:16;;;;;;;4.60;4.07;;;18.10;48.80;;;;;;5055179;28;20832;-79
2021/03/26 12:51:47;;;;;;;4.93;3.17;;;17.90;46.90;;;;;;5056116;28;20430;-79
2021/03/26 12:54:21;;;;;;;6.23;3.87;;;17.90;49.20;;;;;;5055641;28;20859;-79
2021/03/26 12:56:55;;;;;;;3.77;3.20;;;17.90;47.90;;;;;;5055510;28;20434;-79
2021/03/26 12:59:26;;;;;;;4.73;4.03;;;17.90;47.90;;;;;;5055446;28;20452;-79
2021/03/26 13:01:54;;;;;;;5.50;4.87;;;17.90;48.90;;;;;;5055173;28;20411;-79
2021/03/26 13:04:39;;;;;;;5.70;4.63;;;17.80;47.40;;;;;;5055426;28;20503;-79
2021/03/26 13:07:24;;;;;;;5.17;4.20;;;17.50;47.80;;;;;;5055133;28;20453;-88
2021/03/26 13:09:56;;;;;;;5.10;3.90;;;17.50;48.20;;;;;;5055647;28;20979;-90
2021/03/26 13:12:29;;;;;;;3.97;3.63;;;17.70;48.30;;;;;;5055289;28;20500;-87
2021/03/26 13:15:00;;;;;;;3.90;3.37;;;17.80;48.50;;;;;;5055947;28;20924;-89
2021/03/26 13:17:30;;;;;;;5.27;3.30;;;17.80;48.00;;;;;;5055225;28;20461;-80
2021/03/26 13:20:05;;;;;;;4.93;4.43;;;17.80;47.60;;;;;;5054812;28;20441;-79
2021/03/26 13:22:35;;;;;;;5.60;4.40;;;17.70;47.30;;;;;;5055064;28;20414;-80
2021/03/26 13:25:13;;;;;;;5.00;3.80;;;17.60;47.60;;;;;;5055043;28;20434;-78
2021/03/26 13:28:09;;;;;;;4.97;3.63;;;17.50;48.90;;;;;;5054512;28;20465;-79
2021/03/26 13:30:44;;;;;;;4.20;3.90;;;17.40;48.90;;;;;;5020188;28;20454;-78
2021/03/26 13:33:19;;;;;;;2.90;2.70;;;17.40;47.60;;;;;;5054651;28;20465;-78